Time;durP1;ratioP1;P1;durP2;ratioP2;P2;SDS_P1;SDS_P2;PMS_P1;PMS_P2;Temp;Humidity;BMP_temperature;BMP_pressure;BME280_temperature;BME280_humidity;BME280_pressure;Samples;Min_cycle;Max_cycle;Signal;HPM_P1;HPM_P2
2023/03/16 00:01:08;;;;;;;2.30;1.80;;;;;;;2.81;100.00;93795.13;6213858;23;20177;-86
2023/03/16 00:03:35;;;;;;;2.10;1.90;;;;;;;2.72;100.00;93793.69;6214455;23;20166;-86
2023/03/16 00:06:02;;;;;;;1.73;1.63;;;;;;;2.76;100.00;93804.38;6213836;23;20162;-84
2023/03/16 00:08:30;;;;;;;2.60;1.90;;;;;;;2.80;100.00;93797.84;6213574;23;20174;-84
2023/03/16 00:10:57;;;;;;;1.80;1.70;;;;;;;2.72;100.00;93803.94;6218325;23;20173;-85
2023/03/16 00:13:25;;;;;;;1.60;1.50;;;;;;;2.76;100.00;93791.53;6214047;23;20540;-87
2023/03/16 00:15:53;;;;;;;2.30;2.10;;;;;;;2.85;100.00;93792.97;6214247;23;20490;-87
2023/03/16 00:18:20;;;;;;;2.17;1.97;;;;;;;2.76;100.00;93804.38;6213705;23;20212;-85
2023/03/16 00:20:51;;;;;;;2.00;1.80;;;;;;;2.69;100.00;93814.59;6213418;23;20185;-86
2023/03/16 00:23:18;;;;;;;1.70;1.50;;;;;;;2.68;100.00;93799.41;6214096;23;20163;-86
2023/03/16 00:25:46;;;;;;;2.10;1.90;;;;;;;2.73;100.00;93807.31;6213970;23;20162;-85
2023/03/16 00:28:13;;;;;;;2.10;1.90;;;;;;;2.57;100.00;93807.66;6202264;23;20162;-86
2023/03/16 00:30:40;;;;;;;2.07;1.87;;;;;;;2.75;100.00;93810.47;6221384;23;20193;-86
2023/03/16 00:33:07;;;;;;;1.87;1.67;;;;;;;2.82;100.00;93808.72;6213577;23;20733;-86
2023/03/16 00:35:34;;;;;;;1.70;1.60;;;;;;;2.82;100.00;93822.34;6213538;23;20170;-86
2023/03/16 00:38:01;;;;;;;2.10;1.90;;;;;;;2.73;100.00;93802.19;6214105;23;20170;-86
2023/03/16 00:40:27;;;;;;;1.60;1.50;;;;;;;2.68;100.00;93801.97;6213907;23;20171;-88
2023/03/16 00:42:56;;;;;;;2.60;2.20;;;;;;;2.66;100.00;93821.88;6214702;23;20173;-84
2023/03/16 00:45:23;;;;;;;2.20;2.00;;;;;;;2.55;100.00;93822.41;6214089;23;20166;-85
2023/03/16 00:47:53;;;;;;;1.93;1.80;;;;;;;2.62;100.00;93824.03;6215058;23;20182;-84
2023/03/16 00:50:21;;;;;;;2.30;2.10;;;;;;;2.49;100.00;93834.22;6217731;23;20177;-84
2023/03/16 00:52:47;;;;;;;2.50;1.90;;;;;;;2.56;100.00;93829.94;6213139;23;20248;-84
2023/03/16 00:55:17;;;;;;;2.70;2.00;;;;;;;2.53;100.00;93826.94;6212874;23;20173;-80
2023/03/16 00:57:44;;;;;;;5.20;2.83;;;;;;;2.62;100.00;93829.16;6212143;23;20589;-80
2023/03/16 01:00:16;;;;;;;2.30;2.00;;;;;;;2.62;100.00;93813.78;6213405;23;20190;-79
2023/03/16 01:02:44;;;;;;;2.10;1.90;;;;;;;2.64;100.00;93814.38;6211863;23;20201;-80
2023/03/16 01:05:12;;;;;;;2.13;1.93;;;;;;;2.71;100.00;93827.25;6212874;23;20241;-79
2023/03/16 01:07:39;;;;;;;2.00;1.80;;;;;;;2.55;100.00;93807.03;6213450;23;20618;-79
2023/03/16 01:10:08;;;;;;;2.17;1.97;;;;;;;2.56;100.00;93803.50;6215208;23;20167;-79
2023/03/16 01:12:37;;;;;;;2.37;1.90;;;;;;;2.51;100.00;93805.84;6217684;23;20166;-79
2023/03/16 01:18:19;;;;;;;2.10;1.87;;;;;;;2.58;100.00;93827.94;5939912;23;20251;-80
2023/03/16 01:20:49;;;;;;;3.23;1.90;;;;;;;2.35;100.00;93821.50;6228891;23;20185;-79
2023/03/16 01:23:22;;;;;;;2.53;1.73;;;;;;;2.28;100.00;93822.25;6216836;23;20236;-81
2023/03/16 01:25:52;;;;;;;1.80;1.70;;;;;;;2.12;100.00;93812.31;6214601;23;20154;-81
2023/03/16 01:28:25;;;;;;;2.13;1.93;;;;;;;1.92;100.00;93811.38;6219917;23;20220;-81
2023/03/16 01:30:54;;;;;;;2.53;1.90;;;;;;;1.61;100.00;93752.06;6213646;23;20185;-80
2023/03/16 01:36:27;;;;;;;3.83;2.30;;;;;;;1.96;100.00;93802.38;6191280;23;20248;-81
2023/03/16 01:38:54;;;;;;;1.63;1.53;;;;;;;2.14;100.00;93846.22;6212856;23;20154;-82
2023/03/16 01:41:21;;;;;;;1.70;1.60;;;;;;;2.19;100.00;93853.38;6211356;23;20174;-82
2023/03/16 01:43:50;;;;;;;1.63;1.53;;;;;;;2.20;100.00;93844.69;6212688;23;20169;-82
2023/03/16 01:46:21;;;;;;;2.67;1.90;;;;;;;2.12;100.00;93842.25;6216179;23;20211;-85
2023/03/16 01:48:56;;;;;;;1.70;1.60;;;;;;;2.09;100.00;93851.13;6213706;23;20158;-80
2023/03/16 01:51:25;;;;;;;1.70;1.60;;;;;;;2.10;100.00;93857.84;6212335;23;20481;-80
2023/03/16 01:53:56;;;;;;;1.80;1.70;;;;;;;2.11;100.00;93836.34;6212327;23;20197;-80
2023/03/16 01:56:29;;;;;;;2.00;1.80;;;;;;;2.20;100.00;93854.94;6212544;23;20166;-80
2023/03/16 01:58:59;;;;;;;1.80;1.57;;;;;;;2.15;100.00;93863.19;6213132;23;20198;-80
2023/03/16 02:01:26;;;;;;;1.53;1.43;;;;;;;2.11;100.00;93861.16;6212822;23;20624;-80
2023/03/16 02:04:02;;;;;;;1.53;1.43;;;;;;;2.02;100.00;93864.88;6213457;23;20173;-80
2023/03/16 02:06:31;;;;;;;1.30;1.30;;;;;;;1.93;100.00;93866.78;6219309;23;20157;-80
2023/03/16 02:08:59;;;;;;;1.50;1.40;;;;;;;1.78;100.00;93872.94;6214039;23;20162;-83
2023/03/16 02:11:26;;;;;;;1.43;1.33;;;;;;;1.70;100.00;93871.28;6214291;23;20773;-84
2023/03/16 02:13:55;;;;;;;1.50;1.40;;;;;;;1.61;100.00;93857.03;6223574;23;20190;-83
2023/03/16 02:16:21;;;;;;;2.90;1.50;;;;;;;1.73;100.00;93876.81;6226603;23;20173;-83
2023/03/16 02:18:50;;;;;;;1.97;1.77;;;;;;;1.75;100.00;93884.31;6225054;23;20181;-84
2023/03/16 02:21:27;;;;;;;1.73;1.63;;;;;;;1.81;100.00;93881.03;6221996;23;20224;-79
2023/03/16 02:23:53;;;;;;;1.60;1.50;;;;;;;1.79;100.00;93890.66;6222648;23;20157;-80
2023/03/16 02:26:28;;;;;;;2.23;1.90;;;;;;;1.73;100.00;93881.94;6215834;23;20169;-79
2023/03/16 02:29:07;;;;;;;2.00;1.90;;;;;;;1.86;100.00;93898.41;6217369;23;20169;-79
2023/03/16 02:31:35;;;;;;;2.20;2.00;;;;;;;1.90;100.00;93894.50;6220346;23;20256;-79
2023/03/16 02:34:03;;;;;;;2.77;2.00;;;;;;;1.93;100.00;93897.50;6217154;23;20272;-79
2023/03/16 02:36:32;;;;;;;1.80;1.70;;;;;;;1.86;100.00;93899.19;6216654;23;20170;-79
2023/03/16 02:38:59;;;;;;;2.87;2.30;;;;;;;1.88;100.00;93897.25;6221321;23;20658;-79
2023/03/16 02:41:25;;;;;;;3.40;2.63;;;;;;;1.81;100.00;93895.59;6217618;23;20180;-79
2023/03/16 02:43:57;;;;;;;3.20;2.20;;;;;;;1.78;100.00;93899.34;6209150;23;20184;-79
2023/03/16 02:46:28;;;;;;;2.20;2.00;;;;;;;1.73;100.00;93902.41;6210747;23;20621;-79
2023/03/16 02:49:03;;;;;;;2.30;2.10;;;;;;;1.79;100.00;93906.00;6214803;23;20169;-80
2023/03/16 02:51:31;;;;;;;3.30;2.00;;;;;;;1.82;100.00;93897.97;6215541;23;20192;-77
2023/03/16 02:53:57;;;;;;;3.10;2.20;;;;;;;1.68;100.00;93886.81;6215090;23;20687;-78
2023/03/16 02:56:24;;;;;;;2.70;2.00;;;;;;;1.80;100.00;93904.25;6216008;23;20165;-78
2023/03/16 02:58:51;;;;;;;3.47;2.50;;;;;;;1.80;100.00;93899.94;6216623;23;20201;-78
2023/03/16 03:01:18;;;;;;;2.70;2.40;;;;;;;1.71;100.00;93891.56;6220249;23;20162;-78
2023/03/16 03:03:45;;;;;;;3.13;2.20;;;;;;;1.73;100.00;93902.41;6216808;23;20180;-78
2023/03/16 03:06:13;;;;;;;2.03;1.93;;;;;;;1.80;100.00;93907.63;6216041;23;20166;-78
2023/03/16 03:08:41;;;;;;;3.77;2.53;;;;;;;1.84;100.00;93915.72;6216674;23;20166;-80
2023/03/16 03:11:08;;;;;;;2.57;2.00;;;;;;;1.80;100.00;93911.94;6221371;23;20681;-82
2023/03/16 03:13:37;;;;;;;2.80;2.00;;;;;;;1.61;100.00;93910.78;6221657;23;20194;-82
2023/03/16 03:16:04;;;;;;;2.20;2.00;;;;;;;1.52;100.00;93909.31;6222853;23;20162;-82
2023/03/16 03:18:31;;;;;;;1.93;1.83;;;;;;;1.47;100.00;93916.75;6223190;23;20185;-81
2023/03/16 03:20:58;;;;;;;3.40;1.60;;;;;;;1.55;100.00;93927.66;6221302;23;20162;-79
2023/03/16 03:23:26;;;;;;;1.90;1.70;;;;;;;1.48;100.00;93929.34;6218651;23;20190;-80
2023/03/16 03:25:58;;;;;;;1.60;1.50;;;;;;;1.41;100.00;93935.38;6218133;23;20162;-80
2023/03/16 03:28:25;;;;;;;1.90;1.70;;;;;;;1.39;100.00;93932.19;6219022;23;20181;-79
2023/03/16 03:30:52;;;;;;;3.17;1.80;;;;;;;1.19;100.00;93931.97;6218120;23;20168;-81
2023/03/16 03:33:18;;;;;;;2.00;1.80;;;;;;;1.22;100.00;93935.94;6218258;23;20220;-85
2023/03/16 03:35:45;;;;;;;1.63;1.50;;;;;;;0.94;100.00;93884.66;6218292;23;20177;-85
2023/03/16 03:38:12;;;;;;;1.70;1.60;;;;;;;1.25;100.00;93941.50;6204622;23;20481;-85
2023/03/16 03:40:40;;;;;;;3.00;1.50;;;;;;;1.18;100.00;93937.28;6217603;23;20170;-83
2023/03/16 03:43:07;;;;;;;1.63;1.50;;;;;;;1.15;100.00;93920.53;6216035;23;20169;-83
2023/03/16 03:45:34;;;;;;;2.50;2.20;;;;;;;1.21;100.00;93937.72;6216540;23;20556;-84
2023/03/16 03:48:01;;;;;;;1.80;1.70;;;;;;;1.27;100.00;93941.31;6215617;23;20166;-84
2023/03/16 03:50:31;;;;;;;2.83;2.40;;;;;;;1.18;100.00;93932.16;6217031;23;20174;-85
2023/03/16 03:53:05;;;;;;;2.90;2.30;;;;;;;1.27;100.00;93949.78;6216056;23;20162;-83
2023/03/16 03:55:32;;;;;;;2.23;2.03;;;;;;;1.32;100.00;93960.28;6220498;23;20158;-83
2023/03/16 03:58:02;;;;;;;1.70;1.60;;;;;;;1.33;100.00;93969.53;6219641;23;20163;-83
2023/03/16 04:00:29;;;;;;;2.60;1.93;;;;;;;1.24;100.00;93962.16;6228417;23;20174;-84
2023/03/16 04:02:55;;;;;;;2.10;1.80;;;;;;;1.21;100.00;93957.38;6216623;23;20624;-84
2023/03/16 04:05:26;;;;;;;2.10;1.90;;;;;;;1.19;100.00;93954.19;6215956;23;20171;-84
2023/03/16 04:07:56;;;;;;;2.00;1.80;;;;;;;1.29;100.00;93983.66;6216129;23;20169;-85
2023/03/16 04:10:24;;;;;;;2.10;1.90;;;;;;;1.29;100.00;93972.63;6216389;23;20672;-86
2023/03/16 04:12:50;;;;;;;4.40;3.13;;;;;;;1.34;100.00;93975.44;6215957;23;20178;-86
2023/03/16 04:15:19;;;;;;;3.83;2.80;;;;;;;1.39;100.00;93975.69;6215875;23;20194;-86
2023/03/16 04:17:45;;;;;;;2.43;2.10;;;;;;;1.35;100.00;93977.03;6218819;23;20170;-83
2023/03/16 04:20:14;;;;;;;3.43;3.00;;;;;;;1.40;100.00;93965.28;6215438;23;20166;-85
2023/03/16 04:22:42;;;;;;;4.70;3.20;;;;;;;1.48;100.00;93982.31;6215133;23;20171;-83
2023/03/16 04:25:09;;;;;;;4.00;2.90;;;;;;;1.42;100.00;93970.22;6215400;23;20196;-85
2023/03/16 04:27:36;;;;;;;3.10;2.77;;;;;;;1.54;100.00;93979.03;6216820;23;20214;-86
2023/03/16 04:30:04;;;;;;;2.43;2.10;;;;;;;1.58;100.00;93987.94;6215972;23;20166;-86
2023/03/16 04:32:33;;;;;;;3.07;2.50;;;;;;;1.58;100.00;93998.19;6216473;23;20181;-85
2023/03/16 04:35:00;;;;;;;3.00;2.50;;;;;;;1.57;100.00;93989.72;6216129;23;20197;-85
2023/03/16 04:37:27;;;;;;;3.10;2.67;;;;;;;1.55;100.00;93993.44;6213865;23;20245;-80
2023/03/16 04:39:54;;;;;;;2.30;2.10;;;;;;;1.59;100.00;93998.00;6214426;23;20163;-85
2023/03/16 04:42:24;;;;;;;2.53;2.30;;;;;;;1.50;100.00;93993.19;6214543;23;20166;-84
2023/03/16 04:44:53;;;;;;;2.83;2.47;;;;;;;1.57;100.00;94012.75;6216481;23;20246;-84
2023/03/16 04:47:22;;;;;;;2.87;2.27;;;;;;;1.37;100.00;93998.13;6214454;23;20173;-81
2023/03/16 04:49:50;;;;;;;2.30;1.73;;;;;;;1.21;100.00;93995.75;6221470;23;20669;-79
2023/03/16 04:52:17;;;;;;;2.00;1.80;;;;;;;1.25;100.00;94010.56;6220397;23;20177;-78
2023/03/16 04:54:44;;;;;;;1.90;1.80;;;;;;;1.12;100.00;94018.09;6218501;23;20200;-80
2023/03/16 04:57:11;;;;;;;2.10;1.90;;;;;;;1.19;100.00;94028.38;6215094;23;20170;-84
2023/03/16 05:00:19;;;;;;;1.70;1.60;;;;;;;1.17;100.00;94017.53;6213044;23;20222;-86
2023/03/16 05:06:10;;;;;;;2.87;2.40;;;;;;;1.04;100.00;94026.63;6212147;23;20658;-85
2023/03/16 05:08:37;;;;;;;1.70;1.60;;;;;;;1.12;100.00;94034.22;6217505;23;20158;-82
2023/03/16 05:11:06;;;;;;;2.30;1.90;;;;;;;0.90;100.00;94019.72;6228925;23;20205;-85
2023/03/16 05:13:33;;;;;;;3.50;2.90;;;;;;;1.10;100.00;94055.81;6217253;23;20171;-85
2023/03/16 05:16:01;;;;;;;3.07;2.43;;;;;;;1.11;100.00;94045.41;6217376;23;20231;-84
2023/03/16 05:18:28;;;;;;;3.20;2.37;;;;;;;1.00;100.00;94027.94;6213318;23;20165;-83
2023/03/16 05:20:56;;;;;;;4.27;2.80;;;;;;;1.09;100.00;94049.13;6213081;23;20188;-85
2023/03/16 05:23:24;;;;;;;3.77;2.40;;;;;;;1.14;100.00;94051.94;6213842;23;20162;-81
2023/03/16 05:25:52;;;;;;;5.27;2.37;;;;;;;1.19;100.00;94041.19;6216249;23;20167;-80
2023/03/16 05:28:18;;;;;;;5.07;2.70;;;;;;;1.22;100.00;94056.97;6223138;23;20212;-81
2023/03/16 05:31:11;;;;;;;8.67;3.80;;;;;;;1.20;100.00;94064.03;6219852;23;20183;-81
2023/03/16 05:34:02;;;;;;;8.10;4.20;;;;;;;0.79;100.00;94001.47;6206386;23;20166;-83
2023/03/16 05:36:29;;;;;;;4.37;3.20;;;;;;;1.06;100.00;94039.25;6194520;23;20502;-81
2023/03/16 05:38:58;;;;;;;3.00;2.70;;;;;;;1.14;100.00;94059.63;6212783;23;20222;-82
2023/03/16 05:41:24;;;;;;;2.30;2.10;;;;;;;1.09;100.00;94052.50;6212493;23;20170;-80
2023/03/16 05:43:51;;;;;;;3.10;2.53;;;;;;;1.17;100.00;94066.94;6212900;23;20229;-79
2023/03/16 05:46:19;;;;;;;3.57;2.70;;;;;;;1.05;100.00;94071.69;6212283;23;20163;-80
2023/03/16 05:48:46;;;;;;;4.70;2.90;;;;;;;1.04;100.00;94076.97;6213014;23;20495;-81
2023/03/16 05:51:13;;;;;;;4.67;3.07;;;;;;;1.10;100.00;94071.16;6213327;23;20173;-80
2023/03/16 05:53:40;;;;;;;7.47;4.30;;;;;;;1.23;100.00;94085.91;6212402;23;20613;-80
2023/03/16 05:56:08;;;;;;;7.03;4.30;;;;;;;1.21;100.00;94075.06;6212576;23;20181;-80
2023/03/16 05:58:37;;;;;;;7.37;4.07;;;;;;;1.24;100.00;94085.72;6212500;23;20197;-80
2023/03/16 06:01:16;;;;;;;6.27;3.50;;;;;;;1.27;100.00;94095.63;6216102;23;20229;-79
2023/03/16 06:03:47;;;;;;;3.80;2.67;;;;;;;1.29;100.00;94093.69;6215856;23;20629;-81
2023/03/16 06:06:15;;;;;;;5.00;3.10;;;;;;;1.31;100.00;94088.41;6201228;23;20184;-81
2023/03/16 06:08:41;;;;;;;8.40;5.23;;;;;;;1.32;100.00;94095.09;6212001;23;20401;-80
2023/03/16 06:11:10;;;;;;;12.73;6.67;;;;;;;1.43;100.00;94092.09;6211855;23;20169;-80
2023/03/16 06:13:37;;;;;;;8.03;5.03;;;;;;;1.47;100.00;94098.47;6212584;23;20175;-79
2023/03/16 06:16:05;;;;;;;4.77;3.57;;;;;;;1.45;100.00;94101.19;6212688;23;20231;-80
2023/03/16 06:18:32;;;;;;;2.07;1.87;;;;;;;1.50;100.00;94093.00;6211959;23;20242;-79
2023/03/16 06:20:58;;;;;;;5.30;3.10;;;;;;;1.54;100.00;94109.59;6209637;23;20177;-80
2023/03/16 06:23:25;;;;;;;6.50;4.40;;;;;;;1.41;100.00;94099.97;6209489;23;20311;-80
2023/03/16 06:25:53;;;;;;;7.43;4.70;;;;;;;1.35;100.00;94105.78;6211234;23;20184;-80
2023/03/16 06:28:22;;;;;;;7.50;4.30;;;;;;;1.40;100.00;94102.69;6216677;23;20610;-80
2023/03/16 06:30:49;;;;;;;7.23;4.90;;;;;;;1.50;100.00;94121.16;6212163;23;20658;-80
2023/03/16 06:33:16;;;;;;;4.53;3.30;;;;;;;1.56;100.00;94120.44;6211958;23;20169;-80
2023/03/16 06:35:43;;;;;;;6.53;4.00;;;;;;;1.53;100.00;94126.69;6212452;23;20190;-80
2023/03/16 06:38:10;;;;;;;7.47;3.90;;;;;;;1.34;100.00;94131.53;6212076;23;20173;-80
2023/03/16 06:40:36;;;;;;;4.30;2.90;;;;;;;1.30;100.00;94128.53;6212490;23;20303;-80
2023/03/16 06:43:03;;;;;;;8.73;5.03;;;;;;;1.37;100.00;94133.75;6211903;23;20974;-80
2023/03/16 06:45:33;;;;;;;3.77;2.47;;;;;;;1.28;100.00;94127.91;6212558;23;20198;-80
2023/03/16 06:48:00;;;;;;;5.27;3.60;;;;;;;1.30;100.00;94149.00;6216391;23;20623;-80
2023/03/16 06:50:26;;;;;;;6.47;3.43;;;;;;;1.36;100.00;94137.28;6212896;23;20172;-80
2023/03/16 06:52:53;;;;;;;5.90;3.60;;;;;;;1.22;100.00;94140.59;6212539;23;20199;-80
2023/03/16 06:55:20;;;;;;;6.00;3.77;;;;;;;1.32;100.00;94151.41;6212252;23;20199;-80
2023/03/16 06:57:47;;;;;;;4.50;2.90;;;;;;;1.43;100.00;94158.66;6212739;23;20208;-80
2023/03/16 07:00:16;;;;;;;3.50;2.10;;;;;;;1.40;100.00;94166.69;6212012;23;20208;-81
2023/03/16 07:02:44;;;;;;;4.13;3.10;;;;;;;1.40;100.00;94169.25;6212225;23;20630;-80
2023/03/16 07:05:13;;;;;;;5.57;3.70;;;;;;;1.44;100.00;94167.94;6200442;23;20166;-80
2023/03/16 07:07:41;;;;;;;7.57;4.43;;;;;;;1.33;100.00;94163.25;6213096;23;20752;-80
2023/03/16 07:10:10;;;;;;;6.80;4.23;;;;;;;1.36;100.00;94171.34;6213171;23;20169;-81
2023/03/16 07:12:37;;;;;;;7.77;5.20;;;;;;;1.43;100.00;94176.56;6213866;23;20171;-81
2023/03/16 07:15:04;;;;;;;10.50;6.27;;;;;;;1.44;100.00;94171.28;6214896;23;20203;-81
2023/03/16 07:17:31;;;;;;;7.27;4.60;;;;;;;1.59;100.00;94184.88;6214256;23;20189;-81
2023/03/16 07:19:59;;;;;;;10.57;6.80;;;;;;;1.64;100.00;94182.63;6214526;23;20170;-82
2023/03/16 07:22:26;;;;;;;7.67;4.60;;;;;;;1.79;100.00;94192.06;6214398;23;20170;-80
2023/03/16 07:24:56;;;;;;;13.07;6.40;;;;;;;1.67;100.00;94184.81;6214045;23;20173;-80
2023/03/16 07:27:23;;;;;;;11.50;6.67;;;;;;;1.63;100.00;94177.66;6214135;23;20647;-81
2023/03/16 07:29:50;;;;;;;11.77;6.73;;;;;;;1.76;100.00;94188.06;6214112;23;20672;-80
2023/03/16 07:32:18;;;;;;;6.40;4.43;;;;;;;1.84;100.00;94189.78;6214365;23;20626;-84
2023/03/16 07:34:44;;;;;;;3.83;3.10;;;;;;;1.70;100.00;94194.69;6220700;23;20196;-84
2023/03/16 07:37:13;;;;;;;5.73;4.20;;;;;;;1.74;100.00;94202.81;6215004;23;20173;-82
2023/03/16 07:39:40;;;;;;;5.67;4.30;;;;;;;1.68;100.00;94196.66;6215003;23;20178;-85
2023/03/16 07:42:08;;;;;;;7.27;4.83;;;;;;;1.75;100.00;94194.19;6212913;23;20169;-85
2023/03/16 07:44:35;;;;;;;6.43;4.73;;;;;;;1.64;100.00;94189.50;6212716;23;20173;-79
2023/03/16 07:47:05;;;;;;;6.37;4.60;;;;;;;1.77;100.00;94199.91;6212633;23;20177;-80
2023/03/16 07:49:32;;;;;;;4.70;3.77;;;;;;;1.68;100.00;94211.22;6215130;23;20189;-79
2023/03/16 07:52:00;;;;;;;10.87;6.57;;;;;;;1.76;100.00;94212.91;6213836;23;20625;-80
2023/03/16 07:54:28;;;;;;;9.73;5.57;;;;;;;1.85;100.00;94215.19;6213718;23;20492;-79
2023/03/16 07:56:55;;;;;;;5.27;3.70;;;;;;;1.93;100.00;94216.91;6215613;23;20173;-84
2023/03/16 07:59:22;;;;;;;3.00;2.40;;;;;;;1.77;100.00;94199.91;6214544;23;20200;-85
2023/03/16 08:01:49;;;;;;;4.17;2.77;;;;;;;1.75;100.00;94203.63;6214472;23;20232;-84
2023/03/16 08:04:16;;;;;;;3.87;2.87;;;;;;;1.78;100.00;94196.41;6214013;23;20662;-85
2023/03/16 08:06:43;;;;;;;4.83;3.30;;;;;;;1.84;100.00;94213.63;6213921;23;20697;-84
2023/03/16 08:09:10;;;;;;;5.47;3.97;;;;;;;1.85;100.00;94193.94;6213935;23;20637;-85
2023/03/16 08:11:38;;;;;;;5.20;3.70;;;;;;;1.93;100.00;94217.69;6214371;23;20228;-86
2023/03/16 08:14:05;;;;;;;5.77;3.93;;;;;;;1.97;100.00;94218.13;6214373;23;20253;-85
2023/03/16 08:16:32;;;;;;;6.13;4.00;;;;;;;1.96;100.00;94226.78;6213354;23;20190;-83
2023/03/16 08:19:00;;;;;;;5.50;3.83;;;;;;;2.04;100.00;94217.25;6213879;23;20228;-83
2023/03/16 08:21:27;;;;;;;6.97;3.67;;;;;;;2.12;100.00;94217.16;6214566;23;20170;-84
2023/03/16 08:23:54;;;;;;;5.17;3.60;;;;;;;2.05;100.00;94236.75;6216930;23;20166;-84
2023/03/16 08:26:22;;;;;;;8.07;4.70;;;;;;;2.18;100.00;94226.72;6212919;23;20173;-85
2023/03/16 08:28:51;;;;;;;3.30;2.97;;;;;;;2.10;100.00;94234.50;6213940;23;20171;-82
2023/03/16 08:31:19;;;;;;;3.37;2.70;;;;;;;2.12;100.00;94244.53;6213129;23;20198;-79
2023/03/16 08:33:47;;;;;;;6.00;4.50;;;;;;;2.21;100.00;94238.38;6212884;23;20170;-80
2023/03/16 08:36:17;;;;;;;6.47;3.90;;;;;;;2.27;100.00;94235.09;6212665;23;20201;-79
2023/03/16 08:38:45;;;;;;;4.00;3.20;;;;;;;2.30;100.00;94237.31;6213048;23;20170;-79
2023/03/16 08:41:13;;;;;;;5.50;3.37;;;;;;;2.32;100.00;94242.25;6212916;23;20174;-79
2023/03/16 08:43:39;;;;;;;6.63;4.27;;;;;;;2.29;100.00;94221.13;6213424;23;20173;-79
2023/03/16 08:46:08;;;;;;;6.90;3.30;;;;;;;2.41;100.00;94238.63;6212257;23;20519;-79
2023/03/16 08:48:35;;;;;;;13.43;4.80;;;;;;;2.46;100.00;94249.13;6212061;23;20174;-79
2023/03/16 08:51:02;;;;;;;6.00;3.67;;;;;;;2.56;100.00;94247.09;6212733;23;20256;-80
2023/03/16 08:53:29;;;;;;;5.70;3.80;;;;;;;2.60;100.00;94246.53;6212187;23;20657;-79
2023/03/16 08:56:02;;;;;;;3.10;2.40;;;;;;;2.57;100.00;94256.38;6212649;23;20194;-79
2023/03/16 08:58:31;;;;;;;2.43;2.20;;;;;;;2.47;100.00;94263.53;6212540;23;20197;-79
2023/03/16 09:00:58;;;;;;;4.53;3.20;;;;;;;2.55;100.00;94260.88;6212207;23;20197;-79
2023/03/16 09:03:27;;;;;;;3.47;2.30;;;;;;;2.57;100.00;94256.38;6212086;23;20637;-78
2023/03/16 09:05:53;;;;;;;4.27;2.50;;;;;;;2.67;100.00;94254.31;6211505;23;20202;-78
2023/03/16 09:08:20;;;;;;;7.60;3.80;;;;;;;2.74;100.00;94257.78;6213314;23;20166;-79
2023/03/16 09:10:47;;;;;;;3.90;3.07;;;;;;;2.75;100.00;94255.00;6214933;23;20200;-80
2023/03/16 09:13:15;;;;;;;5.47;3.27;;;;;;;2.73;100.00;94251.03;6214669;23;20590;-80
2023/03/16 09:15:42;;;;;;;5.93;3.60;;;;;;;2.80;100.00;94257.03;6212337;23;20743;-81
2023/03/16 09:18:10;;;;;;;4.23;2.80;;;;;;;2.78;100.00;94261.56;6212878;23;20238;-78
2023/03/16 09:20:38;;;;;;;4.47;3.03;;;;;;;2.79;100.00;94261.38;6212498;23;20174;-79
2023/03/16 09:23:05;;;;;;;3.77;2.67;;;;;;;2.76;100.00;94260.94;6211633;23;20266;-79
2023/03/16 09:25:32;;;;;;;5.17;3.23;;;;;;;2.84;100.00;94274.47;6212481;23;20173;-79
2023/03/16 09:27:59;;;;;;;5.17;3.50;;;;;;;2.75;100.00;94256.78;6213085;23;20166;-80
2023/03/16 09:30:26;;;;;;;5.77;3.30;;;;;;;2.76;100.00;94261.75;6213246;23;20170;-79
2023/03/16 09:32:53;;;;;;;5.67;3.87;;;;;;;2.81;100.00;94276.59;6212826;23;20609;-80
2023/03/16 09:35:21;;;;;;;8.07;4.93;;;;;;;2.83;100.00;94261.81;6212945;23;20194;-80
2023/03/16 09:37:49;;;;;;;4.43;3.33;;;;;;;2.81;100.00;94271.44;6215292;23;20170;-77
2023/03/16 09:40:22;;;;;;;4.73;3.20;;;;;;;2.70;100.00;94277.84;6211897;23;20232;-79
2023/03/16 09:43:00;;;;;;;3.57;2.93;;;;;;;2.64;100.00;94275.19;6211434;23;20810;-78
2023/03/16 09:45:35;;;;;;;7.70;4.33;;;;;;;2.54;100.00;94261.88;6213846;23;20155;-79
2023/03/16 09:48:05;;;;;;;6.47;3.50;;;;;;;2.57;100.00;94284.59;6214325;23;20157;-79
2023/03/16 09:50:35;;;;;;;4.57;3.73;;;;;;;2.63;100.00;94278.72;6214304;23;20201;-78
2023/03/16 09:53:10;;;;;;;4.97;3.50;;;;;;;2.60;100.00;94285.00;6213735;23;20165;-79
2023/03/16 09:55:39;;;;;;;3.57;3.00;;;;;;;2.47;100.00;94273.81;6213518;23;20652;-78
2023/03/16 09:58:16;;;;;;;3.30;3.00;;;;;;;2.52;100.00;94272.28;6214122;23;20170;-79
2023/03/16 10:00:51;;;;;;;4.47;3.60;;;;;;;2.55;100.00;94266.81;6213990;23;20169;-79
2023/03/16 10:03:37;;;;;;;6.37;4.20;;;;;;;2.69;100.00;94281.38;6213868;23;20241;-79
2023/03/16 10:06:08;;;;;;;8.93;5.40;;;;;;;2.75;100.00;94282.44;6213288;23;20189;-79
2023/03/16 10:08:41;;;;;;;8.93;5.40;;;;;;;2.78;100.00;94274.38;6213665;23;20162;-79
2023/03/16 10:11:22;;;;;;;3.90;3.20;;;;;;;2.74;100.00;94268.81;6213398;23;20158;-81
2023/03/16 10:13:55;;;;;;;5.23;3.40;;;;;;;2.68;100.00;94277.25;6213518;23;20277;-78
2023/03/16 10:16:27;;;;;;;5.97;4.10;;;;;;;2.62;100.00;94272.03;6213102;23;20190;-79
2023/03/16 10:19:00;;;;;;;6.63;4.20;;;;;;;2.77;100.00;94280.50;6213447;23;20154;-79
2023/03/16 10:21:28;;;;;;;6.37;4.13;;;;;;;2.85;100.00;94281.19;6213076;23;20159;-77
2023/03/16 10:24:01;;;;;;;9.00;5.67;;;;;;;2.98;100.00;94282.28;6212980;23;20197;-78
2023/03/16 10:26:37;;;;;;;8.97;5.07;;;;;;;2.98;100.00;94277.97;6213603;23;20696;-77
2023/03/16 10:29:13;;;;;;;5.07;3.80;;;;;;;3.10;100.00;94286.78;6214866;23;20154;-80
2023/03/16 10:31:41;;;;;;;6.47;3.97;;;;;;;3.00;100.00;94276.00;6213446;23;20212;-79
2023/03/16 10:34:09;;;;;;;5.20;3.60;;;;;;;2.95;100.00;94286.03;6213775;23;20232;-78
2023/03/16 10:36:39;;;;;;;4.60;3.13;;;;;;;3.02;100.00;94275.84;6214017;23;20250;-79
2023/03/16 10:39:11;;;;;;;6.53;4.30;;;;;;;2.88;100.00;94280.03;6213986;23;20174;-79
2023/03/16 10:41:39;;;;;;;5.50;3.53;;;;;;;2.76;100.00;94263.50;6213542;23;20174;-79
2023/03/16 10:44:11;;;;;;;8.27;4.90;;;;;;;2.81;100.00;94281.72;6213608;23;20170;-79
2023/03/16 10:46:39;;;;;;;11.10;5.77;;;;;;;2.94;100.00;94273.38;6214166;23;20155;-77
2023/03/16 10:49:20;;;;;;;6.10;4.60;;;;;;;2.91;100.00;94276.31;6216894;23;20174;-81
2023/03/16 10:51:47;;;;;;;10.63;6.37;;;;;;;2.88;100.00;94262.06;6216723;23;20206;-81
2023/03/16 10:54:19;;;;;;;11.30;7.43;;;;;;;3.02;100.00;94270.69;6216515;23;20242;-82
2023/03/16 10:56:49;;;;;;;7.83;5.80;;;;;;;3.13;100.00;94277.91;6216124;23;20185;-80
2023/03/16 10:59:26;;;;;;;7.37;5.20;;;;;;;3.25;100.00;94284.19;6215475;23;20198;-77
2023/03/16 11:01:53;;;;;;;8.87;5.67;;;;;;;3.42;100.00;94280.41;6214711;23;20598;-78
2023/03/16 11:04:20;;;;;;;7.10;4.40;;;;;;;3.43;99.36;94285.31;6215261;23;20284;-77
2023/03/16 11:06:54;;;;;;;7.20;4.57;;;;;;;3.31;100.00;94286.81;6215401;23;20221;-77
2023/03/16 11:09:26;;;;;;;8.17;5.27;;;;;;;3.38;100.00;94284.28;6215271;23;20157;-77
2023/03/16 11:11:56;;;;;;;7.40;5.20;;;;;;;3.36;100.00;94276.78;6215223;23;20154;-79
2023/03/16 11:14:27;;;;;;;8.37;5.40;;;;;;;3.37;100.00;94280.94;6215629;23;20170;-79
2023/03/16 11:17:03;;;;;;;6.90;4.73;;;;;;;3.37;100.00;94291.22;6215200;23;20230;-78
2023/03/16 11:19:33;;;;;;;7.47;5.03;;;;;;;3.33;99.71;94279.72;6215558;23;20162;-77
2023/03/16 11:22:03;;;;;;;8.00;4.87;;;;;;;3.36;99.83;94286.25;6215039;23;20515;-77
2023/03/16 11:24:41;;;;;;;7.20;4.87;;;;;;;3.39;100.00;94281.56;6215543;23;20170;-78
2023/03/16 11:27:16;;;;;;;9.47;5.43;;;;;;;3.42;99.85;94294.03;6215196;23;20237;-79
2023/03/16 11:29:58;;;;;;;7.97;5.83;;;;;;;3.44;99.58;94283.56;6215223;23;20220;-80
2023/03/16 11:32:29;;;;;;;12.80;6.20;;;;;;;3.49;99.42;94286.41;6215791;23;20229;-79
2023/03/16 11:34:56;;;;;;;8.00;5.90;;;;;;;3.58;98.84;94292.22;6215130;23;20619;-78
2023/03/16 11:37:42;;;;;;;9.93;6.40;;;;;;;3.52;97.72;94285.22;6215571;23;20193;-78
2023/03/16 11:40:20;;;;;;;10.17;7.10;;;;;;;3.56;99.16;94286.44;6215615;23;20559;-79
2023/03/16 11:43:00;;;;;;;7.63;4.90;;;;;;;3.49;99.05;94294.09;6214558;23;20154;-79
2023/03/16 11:45:36;;;;;;;7.23;5.20;;;;;;;3.49;99.23;94283.81;6215264;23;20154;-78
2023/03/16 11:48:27;;;;;;;10.00;6.30;;;;;;;3.56;99.34;94294.13;6214858;23;20154;-78
2023/03/16 11:51:02;;;;;;;8.10;5.43;;;;;;;3.49;98.22;94296.66;6215283;23;20170;-79
2023/03/16 11:53:40;;;;;;;8.07;5.27;;;;;;;3.34;98.87;94294.16;6215322;23;20163;-84